createdAt,value
2019-04-05T00:00:42.362Z,3.70
2019-04-05T00:03:13.882Z,3.50
2019-04-05T00:05:47.133Z,3.10
2019-04-05T00:08:19.549Z,3.23
2019-04-05T00:10:52.388Z,3.60
2019-04-05T00:13:22.639Z,3.60
2019-04-05T00:15:52.477Z,3.87
2019-04-05T00:18:22.075Z,3.60
2019-04-05T00:20:52.002Z,3.90
2019-04-05T00:23:21.973Z,4.10
2019-04-05T00:25:51.769Z,3.50
2019-04-05T00:28:21.700Z,3.23
2019-04-05T00:30:51.545Z,3.40
2019-04-05T00:33:24.805Z,3.80
2019-04-05T00:35:54.549Z,3.10
2019-04-05T00:38:24.616Z,3.50
2019-04-05T00:40:54.433Z,3.37
2019-04-05T00:43:24.600Z,4.10
2019-04-05T00:45:54.141Z,3.70
2019-04-05T00:48:23.956Z,3.80
2019-04-05T00:50:53.960Z,4.10
2019-04-05T00:53:24.131Z,4.03
2019-04-05T00:55:58.431Z,3.87
2019-04-05T00:58:28.517Z,3.97
2019-04-05T01:00:58.310Z,4.07
2019-04-05T01:03:27.984Z,4.10
2019-04-05T01:06:00.812Z,4.10
2019-04-05T01:08:36.980Z,3.33
2019-04-05T01:11:06.778Z,3.20
2019-04-05T01:16:13.499Z,3.63
2019-04-05T01:18:44.258Z,4.03
2019-04-05T01:21:21.830Z,3.77
2019-04-05T01:23:52.016Z,3.50
2019-04-05T01:26:27.454Z,3.60
2019-04-05T01:28:57.034Z,4.13
2019-04-05T01:31:26.771Z,4.37
2019-04-05T01:33:56.549Z,4.37
2019-04-05T01:36:26.452Z,4.57
2019-04-05T01:38:56.187Z,5.40
2019-04-05T01:41:25.808Z,5.03
2019-04-05T01:43:55.598Z,4.80
2019-04-05T01:46:25.527Z,5.17
2019-04-05T01:48:55.444Z,5.10
2019-04-05T01:51:28.108Z,6.23
2019-04-05T01:53:57.904Z,5.23
2019-04-05T01:56:27.832Z,4.70
2019-04-05T01:58:57.677Z,6.93
2019-04-05T02:01:27.426Z,5.17
2019-04-05T02:03:57.410Z,4.97
2019-04-05T02:06:27.282Z,5.00
2019-04-05T02:09:03.053Z,7.30
2019-04-05T02:11:32.126Z,4.83
2019-04-05T02:14:01.773Z,4.40
2019-04-05T02:16:31.999Z,5.03
2019-04-05T02:19:01.558Z,6.10
2019-04-05T02:21:34.624Z,6.10
2019-04-05T02:24:04.438Z,5.20
2019-04-05T02:26:34.462Z,6.00
2019-04-05T02:29:04.333Z,6.70
2019-04-05T02:31:34.317Z,5.63
2019-04-05T02:34:04.575Z,6.40
2019-04-05T02:36:34.968Z,6.70
2019-04-05T02:39:05.462Z,6.10
2019-04-05T02:41:35.096Z,8.20
2019-04-05T02:44:04.653Z,7.10
2019-04-05T02:46:34.955Z,6.67
2019-04-05T02:49:04.993Z,6.27
2019-04-05T02:51:36.710Z,5.40
2019-04-05T02:54:06.670Z,6.13
2019-04-05T02:56:36.675Z,7.20
2019-04-05T02:59:07.988Z,5.87
2019-04-05T03:01:43.877Z,5.50
2019-04-05T03:04:13.905Z,5.47
2019-04-05T03:06:45.380Z,5.73
2019-04-05T03:09:15.027Z,7.73
2019-04-05T03:11:44.829Z,6.90
2019-04-05T03:14:14.858Z,6.63
2019-04-05T03:16:48.331Z,7.00
2019-04-05T03:19:24.340Z,6.87
2019-04-05T03:21:58.357Z,7.17
2019-04-05T03:24:31.203Z,6.33
2019-04-05T03:27:06.526Z,6.20
2019-04-05T03:29:49.287Z,7.13
2019-04-05T03:32:19.485Z,7.73
2019-04-05T03:34:49.645Z,7.93
2019-04-05T03:37:21.655Z,6.43
2019-04-05T03:40:01.287Z,7.50
2019-04-05T03:42:44.052Z,7.37
2019-04-05T03:45:16.936Z,7.37
2019-04-05T03:47:46.853Z,8.27
2019-04-05T03:50:16.561Z,8.47
2019-04-05T03:52:46.331Z,7.57
2019-04-05T03:55:29.757Z,8.13
2019-04-05T03:58:02.583Z,7.37
2019-04-05T04:00:32.521Z,8.60
2019-04-05T04:03:05.457Z,9.30
2019-04-05T04:05:35.578Z,9.67
2019-04-05T04:08:05.643Z,9.47
2019-04-05T04:10:36.038Z,8.27
2019-04-05T04:13:05.405Z,8.87
2019-04-05T04:15:35.125Z,9.17
2019-04-05T04:18:06.414Z,8.37
2019-04-05T04:20:49.523Z,8.43
2019-04-05T04:23:19.040Z,10.37
2019-04-05T04:25:48.864Z,10.37
2019-04-05T04:28:18.706Z,9.57
2019-04-05T04:30:54.620Z,26.67
2019-04-05T04:33:24.577Z,12.53
2019-04-05T04:35:54.796Z,10.20
2019-04-05T04:38:29.586Z,10.67
2019-04-05T04:41:10.594Z,11.03
2019-04-05T04:44:22.702Z,11.23
2019-04-05T04:47:04.020Z,11.50
2019-04-05T04:49:56.081Z,10.23
2019-04-05T04:52:46.783Z,10.07
2019-04-05T04:55:33.388Z,11.27
2019-04-05T04:58:18.597Z,8.13
2019-04-05T05:01:10.819Z,7.90
2019-04-05T05:03:56.558Z,8.97
2019-04-05T05:06:55.377Z,7.53
2019-04-05T05:09:29.081Z,7.93
2019-04-05T05:13:49.104Z,8.03
2019-04-05T05:14:55.227Z,8.20
2019-04-05T05:17:58.823Z,7.43
2019-04-05T05:27:41.743Z,9.43
2019-04-05T05:52:02.933Z,8.90
2019-04-05T05:54:34.818Z,10.63
2019-04-05T05:57:04.942Z,14.57
2019-04-05T06:00:04.895Z,11.53
2019-04-05T06:02:48.575Z,10.47
2019-04-05T06:05:21.978Z,10.73
2019-04-05T06:08:02.245Z,8.30
2019-04-05T06:10:36.256Z,9.63
2019-04-05T06:13:07.887Z,9.63
2019-04-05T06:18:43.552Z,8.87
2019-04-05T06:21:48.578Z,6.30
2019-04-05T06:24:48.339Z,10.20
2019-04-05T06:27:35.727Z,9.37
2019-04-05T06:30:22.876Z,10.87
2019-04-05T06:32:52.862Z,12.87
2019-04-05T06:35:29.200Z,13.17
2019-04-05T06:38:04.733Z,9.83
2019-04-05T06:40:40.944Z,9.87
2019-04-05T06:43:08.935Z,8.87
2019-04-05T06:45:41.591Z,9.83
2019-04-05T06:48:19.559Z,10.43
2019-04-05T06:50:47.474Z,10.83
2019-04-05T06:53:25.593Z,10.20
2019-04-05T06:56:05.308Z,8.67
2019-04-05T06:58:46.297Z,8.47
2019-04-05T07:01:25.034Z,13.00
2019-04-05T07:04:01.447Z,9.60
2019-04-05T07:07:22.690Z,12.50
2019-04-05T07:10:01.922Z,12.93
2019-04-05T07:12:47.428Z,12.33
2019-04-05T07:15:32.809Z,10.40
2019-04-05T07:18:08.871Z,12.50
2019-04-05T07:24:26.009Z,9.90
2019-04-05T07:26:57.414Z,36.97
2019-04-05T07:29:26.390Z,17.30
2019-04-05T07:31:55.694Z,11.60
2019-04-05T07:34:25.271Z,10.40
2019-04-05T07:36:54.554Z,14.87
2019-04-05T07:39:43.182Z,10.83
2019-04-05T07:42:12.514Z,11.50
2019-04-05T07:44:41.914Z,10.27
2019-04-05T07:47:11.184Z,8.90
2019-04-05T07:49:40.495Z,7.80
2019-04-05T07:52:12.776Z,6.80
2019-04-05T07:54:40.891Z,11.60
2019-04-05T07:57:10.141Z,7.30
2019-04-05T07:59:39.562Z,9.80
2019-04-05T08:02:09.081Z,10.17
2019-04-05T08:04:38.571Z,9.57
2019-04-05T08:07:07.911Z,9.43
2019-04-05T08:09:37.651Z,8.23
2019-04-05T08:12:07.081Z,8.60
2019-04-05T08:14:37.119Z,8.13
2019-04-05T08:17:06.777Z,12.27
2019-04-05T08:19:37.112Z,11.37
2019-04-05T08:22:10.329Z,10.57
2019-04-05T08:24:45.220Z,7.67
2019-04-05T08:27:16.844Z,13.50
2019-04-05T08:29:49.073Z,14.67
2019-04-05T08:32:28.931Z,11.73
2019-04-05T08:35:21.170Z,7.83
2019-04-05T08:37:51.290Z,11.80
2019-04-05T08:40:23.668Z,7.83
2019-04-05T08:46:08.240Z,7.60
2019-04-05T08:49:11.099Z,8.93
2019-04-05T08:51:40.326Z,26.90
2019-04-05T08:54:31.824Z,6.37
2019-04-05T08:57:03.205Z,7.60
2019-04-05T08:59:45.692Z,5.70
2019-04-05T09:02:26.887Z,6.63
2019-04-05T09:05:20.416Z,5.43
2019-04-05T09:11:13.122Z,27.60
2019-04-05T09:13:50.512Z,68.83
2019-04-05T09:16:23.601Z,7.13
2019-04-05T09:25:30.248Z,6.07
2019-04-05T09:28:00.818Z,6.73
2019-04-05T09:30:37.426Z,6.17
2019-04-05T09:33:36.965Z,8.87
2019-04-05T09:36:20.027Z,6.97
2019-04-05T09:39:48.399Z,6.50
2019-04-05T09:42:42.518Z,6.80
2019-04-05T09:45:36.599Z,5.80
2019-04-05T09:48:27.710Z,7.43
2019-04-05T09:51:00.800Z,4.37
2019-04-05T09:53:34.094Z,4.20
2019-04-05T09:56:09.231Z,4.03
2019-04-05T09:59:26.454Z,8.53
2019-04-05T10:05:04.140Z,5.47
2019-04-05T10:07:56.686Z,5.80
2019-04-05T10:10:35.746Z,9.30
2019-04-05T10:13:10.474Z,9.10
2019-04-05T10:16:36.096Z,4.47
2019-04-05T10:22:32.039Z,7.67
2019-04-05T10:25:50.854Z,11.13
2019-04-05T10:28:33.681Z,6.20
2019-04-05T10:31:16.740Z,7.60
2019-04-05T10:33:54.439Z,4.83
2019-04-05T10:36:51.693Z,5.83
2019-04-05T10:39:24.787Z,7.33
2019-04-05T10:42:06.679Z,5.60
2019-04-05T10:44:55.713Z,5.50
2019-04-05T10:47:51.549Z,8.60
2019-04-05T10:50:35.712Z,16.43
2019-04-05T10:53:17.096Z,6.33
2019-04-05T10:56:59.754Z,5.20
2019-04-05T10:59:41.713Z,5.20
2019-04-05T11:02:25.148Z,4.50
2019-04-05T11:05:04.276Z,8.13
2019-04-05T11:10:46.499Z,6.50
2019-04-05T11:13:20.099Z,7.60
2019-04-05T11:15:56.158Z,7.40
2019-04-05T11:18:26.586Z,7.90
2019-04-05T11:21:00.801Z,9.60
2019-04-05T11:23:32.289Z,8.10
2019-04-05T11:30:01.552Z,8.73
2019-04-05T11:33:44.689Z,9.07
2019-04-05T11:36:24.532Z,9.50
2019-04-05T11:39:48.250Z,8.30
2019-04-05T11:42:27.353Z,8.67
2019-04-05T11:45:14.965Z,10.07
2019-04-05T11:48:04.949Z,10.73
2019-04-05T11:50:43.393Z,9.93
2019-04-05T11:53:13.513Z,11.50
2019-04-05T11:56:39.824Z,12.20
2019-04-05T11:59:17.615Z,62.60
2019-04-05T12:02:14.598Z,51.60
2019-04-05T12:04:55.367Z,15.87
2019-04-05T12:07:41.870Z,12.70
2019-04-05T12:10:13.629Z,32.33
2019-04-05T12:13:16.584Z,13.70
2019-04-05T12:16:03.683Z,9.83
2019-04-05T12:18:41.332Z,8.67
2019-04-05T12:21:26.913Z,10.07
2019-04-05T12:27:43.719Z,9.93
2019-04-05T12:30:21.223Z,8.80
2019-04-05T12:33:12.988Z,9.50
2019-04-05T12:35:39.813Z,10.77
2019-04-05T12:38:37.065Z,10.77
2019-04-05T12:41:18.243Z,10.00
2019-04-05T12:44:08.434Z,10.67
2019-04-05T12:47:17.539Z,9.67
2019-04-05T12:49:54.115Z,12.57
2019-04-05T12:52:36.342Z,10.43
2019-04-05T12:55:41.931Z,11.83
2019-04-05T12:58:28.844Z,11.37
2019-04-05T13:01:04.250Z,41.17
2019-04-05T13:07:09.310Z,15.13
2019-04-05T13:09:53.817Z,12.33
2019-04-05T13:12:26.990Z,9.40
2019-04-05T13:15:11.296Z,14.00
2019-04-05T13:17:49.491Z,10.47
2019-04-05T13:20:23.180Z,11.47
2019-04-05T13:22:53.640Z,11.97
2019-04-05T13:25:25.277Z,17.20
2019-04-05T13:27:58.699Z,11.07
2019-04-05T13:30:48.252Z,28.13
2019-04-05T13:33:34.234Z,12.47
2019-04-05T13:36:10.223Z,10.63
2019-04-05T13:38:54.331Z,10.40
2019-04-05T13:41:31.686Z,9.60
2019-04-05T13:44:16.627Z,12.03
2019-04-05T13:46:49.996Z,11.60
2019-04-05T13:49:34.888Z,12.03
2019-04-05T13:52:06.704Z,9.87
2019-04-05T13:54:40.342Z,11.37
2019-04-05T13:57:12.555Z,14.03
2019-04-05T13:59:53.397Z,12.10
2019-04-05T14:02:43.891Z,10.27
2019-04-05T14:08:12.462Z,10.57
2019-04-05T14:10:53.270Z,11.03
2019-04-05T14:13:29.317Z,10.00
2019-04-05T14:16:06.192Z,14.70
2019-04-05T14:18:55.809Z,18.80
2019-04-05T14:21:47.115Z,31.37
2019-04-05T14:24:13.699Z,14.30
2019-04-05T14:26:48.967Z,14.17
2019-04-05T14:29:33.345Z,13.60
2019-04-05T14:32:20.909Z,11.77
2019-04-05T14:34:54.881Z,12.33
2019-04-05T14:40:23.972Z,11.00
2019-04-05T14:42:58.440Z,11.97
2019-04-05T14:45:38.343Z,14.07
2019-04-05T14:48:31.776Z,12.50
2019-04-05T14:51:33.775Z,13.77
2019-04-05T14:54:20.654Z,12.33
2019-04-05T14:57:05.441Z,12.47
2019-04-05T14:59:33.032Z,34.13
2019-04-05T15:02:03.509Z,23.03
2019-04-05T15:04:33.764Z,15.67
2019-04-05T15:09:46.143Z,13.40
2019-04-05T15:12:16.338Z,13.03
2019-04-05T15:14:47.115Z,12.40
2019-04-05T15:17:22.584Z,14.10
2019-04-05T15:19:58.551Z,12.80
2019-04-05T15:22:28.676Z,13.67
2019-04-05T15:25:08.095Z,13.60
2019-04-05T15:27:41.880Z,12.93
2019-04-05T15:30:26.474Z,17.87
2019-04-05T15:32:58.508Z,13.63
2019-04-05T15:35:58.047Z,13.67
2019-04-05T15:38:32.385Z,12.03
2019-04-05T15:41:41.882Z,12.63
2019-04-05T15:44:25.433Z,68.17
2019-04-05T15:47:04.706Z,20.27
2019-04-05T15:49:44.825Z,13.57
2019-04-05T15:55:48.652Z,13.53
2019-04-05T15:58:52.547Z,13.80
2019-04-05T16:01:39.273Z,13.83
2019-04-05T16:04:15.304Z,17.83
2019-04-05T16:06:50.135Z,15.77
2019-04-05T16:09:30.046Z,17.07
2019-04-05T16:12:12.108Z,13.93
2019-04-05T16:14:52.672Z,15.20
2019-04-05T16:17:28.872Z,18.07
2019-04-05T16:20:07.894Z,16.57
2019-04-05T16:22:48.324Z,14.97
2019-04-05T16:25:33.602Z,15.80
2019-04-05T16:28:26.555Z,14.57
2019-04-05T16:31:03.944Z,40.40
2019-04-05T16:36:40.842Z,21.27
2019-04-05T16:39:15.160Z,16.30
2019-04-05T16:41:53.982Z,16.70
2019-04-05T16:44:33.319Z,16.67
2019-04-05T16:52:59.692Z,17.90
2019-04-05T16:55:31.653Z,19.10
2019-04-05T16:58:15.904Z,16.47
2019-04-05T17:00:46.330Z,16.60
2019-04-05T17:03:25.462Z,18.30
2019-04-05T17:06:04.670Z,16.97
2019-04-05T17:08:41.993Z,35.20
2019-04-05T17:11:12.806Z,24.10
2019-04-05T17:14:02.502Z,19.70
2019-04-05T17:16:37.520Z,20.20
2019-04-05T17:23:24.719Z,19.97
2019-04-05T17:29:27.280Z,22.10
2019-04-05T17:32:02.723Z,51.40
2019-04-05T17:34:43.958Z,23.27
2019-04-05T17:37:19.959Z,20.93
2019-04-05T17:40:01.653Z,19.30
2019-04-05T17:42:37.513Z,19.80
2019-04-05T17:45:16.840Z,19.03
2019-04-05T17:47:49.723Z,23.20
2019-04-05T17:57:45.594Z,20.67
2019-04-05T18:00:24.564Z,20.30
2019-04-05T18:02:55.765Z,20.60
2019-04-05T18:05:26.165Z,21.57
2019-04-05T18:08:02.803Z,21.20
2019-04-05T18:11:05.013Z,22.03
2019-04-05T18:13:44.002Z,22.67
2019-04-05T18:16:40.810Z,21.37
2019-04-05T18:19:14.111Z,23.57
2019-04-05T18:21:53.955Z,21.57
2019-04-05T18:25:14.004Z,22.17
2019-04-05T18:27:08.205Z,23.10
2019-04-05T18:29:40.973Z,25.13
2019-04-05T18:32:11.398Z,24.17
2019-04-05T18:34:41.313Z,70.20
2019-04-05T18:37:11.374Z,108.57
2019-04-05T18:42:45.542Z,23.40
2019-04-05T18:45:20.770Z,21.50
2019-04-05T18:47:55.964Z,26.30
2019-04-05T18:50:33.053Z,22.53
2019-04-05T18:56:03.872Z,25.80
2019-04-05T18:58:37.513Z,22.03
2019-04-05T19:01:45.748Z,22.73
2019-04-05T19:04:31.039Z,24.23
2019-04-05T19:07:26.309Z,23.90
2019-04-05T19:09:59.193Z,24.07
2019-04-05T19:12:32.218Z,25.87
2019-04-05T19:15:28.046Z,171.87
2019-04-05T19:17:58.225Z,184.53
2019-04-05T19:20:40.735Z,28.50
2019-04-05T19:23:14.103Z,22.47
2019-04-05T19:25:48.040Z,25.63
2019-04-05T19:28:25.839Z,25.13
2019-04-05T19:50:43.295Z,33.13
2019-04-05T19:53:25.212Z,30.03
2019-04-05T19:56:07.807Z,27.87
2019-04-05T19:58:38.130Z,29.20
2019-04-05T20:01:34.973Z,28.40
2019-04-05T20:04:06.318Z,31.20
2019-04-05T20:06:43.915Z,30.73
2019-04-05T20:09:15.878Z,32.57
2019-04-05T20:12:09.447Z,30.10
2019-04-05T20:14:53.699Z,28.67
2019-04-05T20:17:32.933Z,28.40
2019-04-05T20:20:23.444Z,30.80
2019-04-05T20:23:02.662Z,26.07
2019-04-05T20:25:34.162Z,28.97
2019-04-05T20:28:07.304Z,28.10
2019-04-05T20:30:57.289Z,28.50
2019-04-05T20:33:31.134Z,30.33
2019-04-05T20:39:24.173Z,50.07
2019-04-05T20:41:57.467Z,34.63
2019-04-05T20:44:51.753Z,26.20
2019-04-05T20:50:38.664Z,29.00
2019-04-05T20:53:26.931Z,31.80
2019-04-05T20:56:10.036Z,28.63
2019-04-05T20:58:47.957Z,29.77
2019-04-05T21:01:41.285Z,36.37
2019-04-05T21:04:31.169Z,29.17
2019-04-05T21:07:07.985Z,32.03
2019-04-05T21:09:54.173Z,27.87
2019-04-05T21:13:05.462Z,32.73
2019-04-05T21:16:00.362Z,32.00
2019-04-05T21:18:38.780Z,31.73
2019-04-05T21:21:14.019Z,31.70
2019-04-05T21:24:13.421Z,31.50
2019-04-05T21:26:48.205Z,33.17
2019-04-05T21:29:19.089Z,33.63
2019-04-05T21:35:07.045Z,36.87
2019-04-05T21:40:31.450Z,38.87
2019-04-05T21:43:04.206Z,34.83
2019-04-05T21:49:04.218Z,34.57
2019-04-05T21:52:16.992Z,40.30
2019-04-05T21:54:54.689Z,37.40
2019-04-05T21:57:41.192Z,33.43
2019-04-05T22:00:20.511Z,36.17
2019-04-05T22:03:22.597Z,35.07
2019-04-05T22:05:58.936Z,35.43
2019-04-05T22:09:10.760Z,37.17
2019-04-05T22:12:03.000Z,38.47
2019-04-05T22:14:57.693Z,39.10
2019-04-05T22:18:40.109Z,41.57
2019-04-05T22:20:32.647Z,40.43
2019-04-05T22:23:24.379Z,39.13
2019-04-05T22:26:04.038Z,36.10
2019-04-05T22:28:55.331Z,38.63
2019-04-05T22:31:57.298Z,37.07
2019-04-05T22:34:52.813Z,36.60
2019-04-05T22:37:49.531Z,37.27
2019-04-05T22:40:46.211Z,33.83
2019-04-05T22:44:17.558Z,44.07
2019-04-05T22:46:48.389Z,37.03
2019-04-05T22:49:21.531Z,39.47
2019-04-05T22:51:54.464Z,40.57
2019-04-05T22:54:24.687Z,40.23
2019-04-05T23:00:07.627Z,39.50
2019-04-05T23:03:17.988Z,37.33
2019-04-05T23:06:11.047Z,39.50
2019-04-05T23:08:47.455Z,40.93
2019-04-05T23:11:17.985Z,39.50
2019-04-05T23:14:09.974Z,39.53
2019-04-05T23:16:40.503Z,47.83
2019-04-05T23:19:32.474Z,41.60
2019-04-05T23:22:28.673Z,45.27
2019-04-05T23:25:08.822Z,41.23
2019-04-05T23:27:42.156Z,46.67
2019-04-05T23:30:15.614Z,38.50
2019-04-05T23:33:08.458Z,40.13
2019-04-05T23:35:44.730Z,46.13
2019-04-05T23:38:15.095Z,45.10
2019-04-05T23:40:47.453Z,41.90
2019-04-05T23:43:36.046Z,50.77
2019-04-05T23:46:21.969Z,46.07
2019-04-05T23:53:01.026Z,44.17
2019-04-05T23:55:53.331Z,41.90
2019-04-05T23:58:31.678Z,37.60
